Beautiful Rena — C6YE7 — position and weather

sailwx.info

Track history (hours):
 
Tides and Currents Weather Stations Pressure Air Temp Water Temp Dewpoint Dewpoint Depression Visibility Wind Speed Wind Dir Waves Ship Positions

Beautiful Rena

Last reported at 2014-Dec-01 10:03 UTC. Time now 2014-Dec-21 20:53 UTC.
Position N 01°13' E 103°41'.
Warning: this ship's position is 20 days out of date.

Length 190 m; draft 13.2 m.

Type: Cargo ship. MMSI: 311030200.

Date/timePositionNaut miles runAvg speedWind from/ knotsBaromVisibWave heightAir tempDewpointWater temp
2014-Dec-01 10:03N 01°13' E 103°41'5 9.6
2014-Dec-01 09:33N 01°16' E 103°45'2 2.1
2014-Dec-01 08:25N 01°18' E 103°43'0 0.0
2014-Dec-01 07:19N 01°18' E 103°43'0 0.0
2014-Dec-01 06:31N 01°18' E 103°43'0 0.0
2014-Dec-01 05:25N 01°18' E 103°43'0 0.0
2014-Dec-01 04:07N 01°18' E 103°43'0 0.0
2014-Dec-01 03:28N 01°18' E 103°43'0 0.0
2014-Nov-30 22:25N 01°18' E 103°43'0 0.0
2014-Nov-30 21:31N 01°18' E 103°43'0 0.0
2014-Nov-30 20:25N 01°18' E 103°43'0 0.0
2014-Nov-30 19:13N 01°18' E 103°43'0 0.0
2014-Nov-30 18:25N 01°18' E 103°43'0 0.0
2014-Nov-30 17:31N 01°18' E 103°43'0 0.0
2014-Nov-30 16:31N 01°18' E 103°43'0 0.0
2014-Nov-30 15:31N 01°18' E 103°43'0 0.0
2014-Nov-30 14:31N 01°18' E 103°43'0 0.0
2014-Nov-30 13:31N 01°18' E 103°43'0 0.0
2014-Nov-30 12:31N 01°18' E 103°43'0 0.0
2014-Nov-30 11:31N 01°18' E 103°43'0 0.0
2014-Nov-30 10:28N 01°18' E 103°43'0 0.0
2014-Nov-30 09:31N 01°18' E 103°43'0 0.0
2014-Nov-30 08:25N 01°18' E 103°43'0 0.0
2014-Nov-30 07:28N 01°18' E 103°43'0 0.0
2014-Nov-30 06:31N 01°18' E 103°43'0 0.0
2014-Nov-30 05:25N 01°18' E 103°43'0 0.0
2014-Nov-30 04:31N 01°18' E 103°43'0 0.0
2014-Nov-30 03:31N 01°18' E 103°43'0 0.0
2014-Nov-30 02:31N 01°18' E 103°43'0 0.0
2014-Nov-30 01:31N 01°18' E 103°43'0 0.0
2014-Nov-30 00:31N 01°18' E 103°43'0 0.0
2014-Nov-29 23:31N 01°18' E 103°43'0 0.0
2014-Nov-29 22:31N 01°18' E 103°43'0 0.0
2014-Nov-29 21:25N 01°18' E 103°43'0 0.0
2014-Nov-29 20:31N 01°18' E 103°43'0 0.0
2014-Nov-29 19:31N 01°18' E 103°43'0 0.1
2014-Nov-29 18:33N 01°18' E 103°43'6 5.6
2014-Nov-29 17:33N 01°14' E 103°47'7 7.1
2014-Nov-29 16:33N 01°15' E 103°54'1 0.7
2014-Nov-29 15:31N 01°16' E 103°54'0 0.0
2014-Nov-29 14:31N 01°16' E 103°54'0 0.1
2014-Nov-29 13:31N 01°16' E 103°54'0 0.0
2014-Nov-29 12:31N 01°16' E 103°54'0 0.0
2014-Nov-29 11:31N 01°16' E 103°54'0 0.0
2014-Nov-29 10:25N 01°16' E 103°54'0 0.1
2014-Nov-29 09:07N 01°16' E 103°54'0 0.2
2014-Nov-29 08:13N 01°16' E 103°54'0 0.1
2014-Nov-29 07:25N 01°16' E 103°54'1 0.8
2014-Nov-29 06:33N 01°15' E 103°54'3 2.6
2014-Nov-29 05:33N 01°14' E 103°57'5 4.6
2014-Nov-29 04:33N 01°16' E 104°01'10 9.4
2014-Nov-29 03:31N 01°17' E 104°11'  
2014-Nov-23 18:15N 23°30' E 117°58'2212.4
2014-Nov-23 16:29N 23°45' E 118°15'1511.8
2014-Nov-23 15:12N 23°55' E 118°27'5311.4
2014-Nov-23 10:33N 24°30' E 119°10'1211.2
2014-Nov-23 09:27N 24°39' E 119°20'  
Track history (hours):
 
Tides and Currents Weather Stations Pressure Air Temp Water Temp Dewpoint Dewpoint Depression Visibility Wind Speed Wind Dir Waves Ship Positions

Beautiful Rena

Last reported at 2014-Dec-01 10:03 UTC. Time now 2014-Dec-21 20:53 UTC.
Position N 01°13' E 103°41'.
Warning: this ship's position is 20 days out of date.

Length 190 m; draft 13.2 m.

Type: Cargo ship. MMSI: 311030200.

Date/timePositionNaut miles runAvg speedWind from/ knotsBaromVisibWave heightAir tempDewpointWater temp
2014-Dec-01 10:03N 01°13' E 103°41'5 9.6
2014-Dec-01 09:33N 01°16' E 103°45'2 2.1
2014-Dec-01 08:25N 01°18' E 103°43'0 0.0
2014-Dec-01 07:19N 01°18' E 103°43'0 0.0
2014-Dec-01 06:31N 01°18' E 103°43'0 0.0
2014-Dec-01 05:25N 01°18' E 103°43'0 0.0
2014-Dec-01 04:07N 01°18' E 103°43'0 0.0
2014-Dec-01 03:28N 01°18' E 103°43'0 0.0
2014-Nov-30 22:25N 01°18' E 103°43'0 0.0
2014-Nov-30 21:31N 01°18' E 103°43'0 0.0
2014-Nov-30 20:25N 01°18' E 103°43'0 0.0
2014-Nov-30 19:13N 01°18' E 103°43'0 0.0
2014-Nov-30 18:25N 01°18' E 103°43'0 0.0
2014-Nov-30 17:31N 01°18' E 103°43'0 0.0
2014-Nov-30 16:31N 01°18' E 103°43'0 0.0
2014-Nov-30 15:31N 01°18' E 103°43'0 0.0
2014-Nov-30 14:31N 01°18' E 103°43'0 0.0
2014-Nov-30 13:31N 01°18' E 103°43'0 0.0
2014-Nov-30 12:31N 01°18' E 103°43'0 0.0
2014-Nov-30 11:31N 01°18' E 103°43'0 0.0
2014-Nov-30 10:28N 01°18' E 103°43'0 0.0
2014-Nov-30 09:31N 01°18' E 103°43'0 0.0
2014-Nov-30 08:25N 01°18' E 103°43'0 0.0
2014-Nov-30 07:28N 01°18' E 103°43'0 0.0
2014-Nov-30 06:31N 01°18' E 103°43'0 0.0
2014-Nov-30 05:25N 01°18' E 103°43'0 0.0
2014-Nov-30 04:31N 01°18' E 103°43'0 0.0
2014-Nov-30 03:31N 01°18' E 103°43'0 0.0
2014-Nov-30 02:31N 01°18' E 103°43'0 0.0
2014-Nov-30 01:31N 01°18' E 103°43'0 0.0
2014-Nov-30 00:31N 01°18' E 103°43'0 0.0
2014-Nov-29 23:31N 01°18' E 103°43'0 0.0
2014-Nov-29 22:31N 01°18' E 103°43'0 0.0
2014-Nov-29 21:25N 01°18' E 103°43'0 0.0
2014-Nov-29 20:31N 01°18' E 103°43'0 0.0
2014-Nov-29 19:31N 01°18' E 103°43'0 0.1
2014-Nov-29 18:33N 01°18' E 103°43'6 5.6
2014-Nov-29 17:33N 01°14' E 103°47'7 7.1
2014-Nov-29 16:33N 01°15' E 103°54'1 0.7
2014-Nov-29 15:31N 01°16' E 103°54'0 0.0
2014-Nov-29 14:31N 01°16' E 103°54'0 0.1
2014-Nov-29 13:31N 01°16' E 103°54'0 0.0
2014-Nov-29 12:31N 01°16' E 103°54'0 0.0
2014-Nov-29 11:31N 01°16' E 103°54'0 0.0
2014-Nov-29 10:25N 01°16' E 103°54'0 0.1
2014-Nov-29 09:07N 01°16' E 103°54'0 0.2
2014-Nov-29 08:13N 01°16' E 103°54'0 0.1
2014-Nov-29 07:25N 01°16' E 103°54'1 0.8
2014-Nov-29 06:33N 01°15' E 103°54'3 2.6
2014-Nov-29 05:33N 01°14' E 103°57'5 4.6
2014-Nov-29 04:33N 01°16' E 104°01'10 9.4
2014-Nov-29 03:31N 01°17' E 104°11'  
2014-Nov-23 18:15N 23°30' E 117°58'2212.4
2014-Nov-23 16:29N 23°45' E 118°15'1511.8
2014-Nov-23 15:12N 23°55' E 118°27'5311.4
2014-Nov-23 10:33N 24°30' E 119°10'1211.2
2014-Nov-23 09:27N 24°39' E 119°20'  

Dump ship's entire track history